Mexico V — XCKR — position and weather

sailwx.info

Track history (hours):
 
Tides and Currents Weather Stations Pressure Air Temp Water Temp Dewpoint Dewpoint Depression Visibility Wind Speed Wind Dir Waves Ship Positions

Mexico V

Last reported at 2015-Mar-26 18:07 UTC. Time now 2015-Mar-26 19:12 UTC.
Position N 20°31' W 086°58'.

Length 40 m; draft 1.5 m.

Type: Ship. MMSI: 345110005.

Date/timePositionNaut miles runAvg speedWind from/ knotsBaromVisibWave heightAir tempDewpointWater temp
2015-Mar-26 18:07N 20°31' W 086°58'0 0.5
2015-Mar-26 17:32N 20°32' W 086°58'1 0.2
2015-Mar-26 15:09N 20°32' W 086°58'2 2.8
2015-Mar-26 14:32N 20°30' W 086°57'0 0.3
2015-Mar-26 13:32N 20°31' W 086°57'0 0.0
2015-Mar-26 12:33N 20°31' W 086°57'0 0.1
2015-Mar-26 11:33N 20°31' W 086°57'1 0.1
2015-Mar-26 01:34N 20°32' W 086°58'0 0.4
2015-Mar-26 00:10N 20°31' W 086°58'1 0.9
2015-Mar-25 23:16N 20°31' W 086°57'0 0.1
2015-Mar-25 22:29N 20°31' W 086°57'2 1.9
2015-Mar-25 21:17N 20°29' W 086°58'3 0.6
2015-Mar-25 17:09N 20°31' W 086°57'0 0.7
2015-Mar-25 16:33N 20°31' W 086°58'0 0.1
2015-Mar-25 15:08N 20°31' W 086°58'1 1.3
2015-Mar-25 14:30N 20°31' W 086°57'2 1.1
2015-Mar-25 12:20N 20°29' W 086°59'2 3.0
2015-Mar-25 11:33N 20°31' W 086°57'0 0.0
2015-Mar-25 03:33N 20°31' W 086°57'1 0.8
2015-Mar-25 02:09N 20°32' W 086°58'1 1.4
2015-Mar-25 01:15N 20°31' W 086°57'0 0.1
2015-Mar-25 00:33N 20°31' W 086°57'1 0.5
2015-Mar-24 23:30N 20°31' W 086°57'0 0.4
2015-Mar-24 22:34N 20°31' W 086°57'1 0.6
2015-Mar-24 21:13N 20°31' W 086°58'1 0.6
2015-Mar-24 19:31N 20°31' W 086°57'1 0.6
2015-Mar-24 18:07N 20°31' W 086°58'1 0.1
2015-Mar-24 11:33N 20°31' W 086°57'0 0.0
2015-Mar-24 02:30N 20°31' W 086°57'2 1.7
2015-Mar-24 01:33N 20°32' W 086°58'1 0.8
2015-Mar-24 00:10N 20°31' W 086°57'0 0.5
2015-Mar-23 23:14N 20°31' W 086°57'0 0.1
2015-Mar-23 22:29N 20°31' W 086°57'0 0.0
2015-Mar-23 21:23N 20°31' W 086°57'0 0.1
2015-Mar-23 19:10N 20°31' W 086°57'0 0.2
2015-Mar-23 18:32N 20°31' W 086°57'0 0.0
2015-Mar-23 17:32N 20°31' W 086°57'0 0.0
2015-Mar-23 16:25N 20°31' W 086°57'0 0.0
2015-Mar-23 15:30N 20°31' W 086°57'0 0.0
2015-Mar-23 14:24N 20°31' W 086°57'0 0.0
2015-Mar-23 13:18N 20°31' W 086°57'0 0.1
2015-Mar-23 12:33N 20°31' W 086°57'2 1.1
2015-Mar-23 11:12N 20°32' W 086°58'2 2.4
2015-Mar-23 10:33N 20°31' W 086°57'0 0.0
2015-Mar-23 00:34N 20°31' W 086°57'1 0.7
2015-Mar-22 23:11N 20°32' W 086°58'1 1.2
2015-Mar-22 22:16N 20°31' W 086°57'0 0.1
2015-Mar-22 21:33N 20°31' W 086°57'0 0.0
2015-Mar-22 20:33N 20°31' W 086°57'0 0.1
2015-Mar-22 19:33N 20°31' W 086°57'1 0.7
2015-Mar-22 18:06N 20°31' W 086°58'0 0.4
2015-Mar-22 17:33N 20°31' W 086°58'0 0.2
2015-Mar-22 16:09N 20°32' W 086°58'1 1.8
2015-Mar-22 15:33N 20°31' W 086°57'1 0.8
2015-Mar-22 14:12N 20°32' W 086°58'1 1.7
2015-Mar-22 13:32N 20°31' W 086°57'0 0.0
2015-Mar-22 12:32N 20°31' W 086°57'0 0.0
2015-Mar-22 11:32N 20°31' W 086°57'0 0.0
2015-Mar-22 02:08N 20°31' W 086°57'0 0.1
2015-Mar-22 01:34N 20°31' W 086°57'1 0.7
2015-Mar-22 00:12N 20°31' W 086°58'0 0.7
2015-Mar-21 23:33N 20°32' W 086°58'1 0.4
2015-Mar-21 22:10N 20°31' W 086°58'1 0.7
2015-Mar-21 21:07N 20°31' W 086°57'1 1.9
2015-Mar-21 20:34N 20°31' W 086°58'0 0.1
2015-Mar-21 19:12N 20°32' W 086°58'1 1.1
2015-Mar-21 18:33N 20°32' W 086°59'1 0.5
2015-Mar-21 17:09N 20°32' W 086°58'0 0.0
2015-Mar-21 15:08N 20°32' W 086°58'1 1.2
2015-Mar-21 14:33N 20°31' W 086°57'1 0.5
2015-Mar-21 13:11N 20°32' W 086°58'1 1.8
2015-Mar-21 12:32N 20°31' W 086°57'1 0.9
2015-Mar-21 11:10N 20°32' W 086°58'1 2.2
2015-Mar-21 10:33N 20°31' W 086°57'0 0.0
2015-Mar-21 01:23N 20°31' W 086°57'1 1.0
2015-Mar-21 00:33N 20°31' W 086°58'0 0.3
2015-Mar-20 23:11N 20°31' W 086°57'0 0.0
2015-Mar-20 21:10N 20°31' W 086°57'0 0.7
2015-Mar-20 20:32N 20°31' W 086°57'1 0.8
2015-Mar-20 19:33N 20°31' W 086°58'0 0.3
2015-Mar-20 18:07N 20°32' W 086°58'2 0.6
2015-Mar-20 14:17N 20°29' W 086°59'0 0.6
2015-Mar-20 13:34N 20°29' W 086°59'2 2.4
2015-Mar-20 12:33N 20°31' W 086°57'0 0.2
2015-Mar-20 11:33N 20°31' W 086°57'0 0.0
2015-Mar-20 01:20N 20°31' W 086°57'0 0.0
2015-Mar-19 23:31N 20°31' W 086°57'1 0.7
2015-Mar-19 22:33N 20°31' W 086°58'0 0.1
2015-Mar-19 15:33N 20°30' W 086°57'0 0.0
2015-Mar-19 14:33N 20°30' W 086°57'1 0.9
2015-Mar-19 13:10N 20°32' W 086°58'1 1.8
2015-Mar-19 12:31N 20°31' W 086°57'1 0.6
2015-Mar-19 11:09N 20°31' W 086°57'1 1.3
2015-Mar-19 10:30N 20°31' W 086°57'0 0.0
2015-Mar-19 00:31N 20°31' W 086°57'2 1.2
2015-Mar-18 23:10N 20°32' W 086°58'1 1.5
2015-Mar-18 22:33N 20°31' W 086°58'1 0.5
2015-Mar-18 21:10N 20°32' W 086°58'1 1.4
2015-Mar-18 20:18N 20°31' W 086°57'0 0.1
2015-Mar-18 19:33N 20°31' W 086°57'1 0.7
2015-Mar-18 18:07N 20°32' W 086°58'1 1.0
2015-Mar-18 17:33N 20°31' W 086°58'1 0.7
2015-Mar-18 16:11N 20°32' W 086°58'0 0.1
2015-Mar-18 14:10N 20°32' W 086°58'1 1.5
2015-Mar-18 13:14N 20°31' W 086°57'0 0.0
2015-Mar-18 12:33N 20°31' W 086°57'0 0.0
2015-Mar-18 11:33N 20°31' W 086°57'0 0.0
2015-Mar-18 01:33N 20°31' W 086°57'1 1.0
2015-Mar-18 00:13N 20°32' W 086°58'1 1.5
2015-Mar-17 23:12N 20°31' W 086°57'2 3.3
2015-Mar-17 22:33N 20°30' W 086°59'1 0.1
2015-Mar-17 13:32N 20°29' W 086°59'2 2.4
2015-Mar-17 12:33N 20°31' W 086°57'1 0.4
2015-Mar-17 11:10N 20°31' W 086°57'1 1.0
2015-Mar-17 10:33N 20°31' W 086°57'0 0.0
2015-Mar-17 01:13N 20°31' W 086°57'0 0.1
2015-Mar-17 00:33N 20°31' W 086°57'1 0.6
2015-Mar-16 23:10N 20°31' W 086°58'0 0.6
2015-Mar-16 22:33N 20°31' W 086°57'1 0.8
2015-Mar-16 21:14N 20°32' W 086°58'1 1.3
2015-Mar-16 20:10N 20°31' W 086°57'  
Track history (hours):
 
Tides and Currents Weather Stations Pressure Air Temp Water Temp Dewpoint Dewpoint Depression Visibility Wind Speed Wind Dir Waves Ship Positions

Mexico V

Last reported at 2015-Mar-26 18:07 UTC. Time now 2015-Mar-26 19:12 UTC.
Position N 20°31' W 086°58'.

Length 40 m; draft 1.5 m.

Type: Ship. MMSI: 345110005.

Date/timePositionNaut miles runAvg speedWind from/ knotsBaromVisibWave heightAir tempDewpointWater temp
2015-Mar-26 18:07N 20°31' W 086°58'0 0.5
2015-Mar-26 17:32N 20°32' W 086°58'1 0.2
2015-Mar-26 15:09N 20°32' W 086°58'2 2.8
2015-Mar-26 14:32N 20°30' W 086°57'0 0.3
2015-Mar-26 13:32N 20°31' W 086°57'0 0.0
2015-Mar-26 12:33N 20°31' W 086°57'0 0.1
2015-Mar-26 11:33N 20°31' W 086°57'1 0.1
2015-Mar-26 01:34N 20°32' W 086°58'0 0.4
2015-Mar-26 00:10N 20°31' W 086°58'1 0.9
2015-Mar-25 23:16N 20°31' W 086°57'0 0.1
2015-Mar-25 22:29N 20°31' W 086°57'2 1.9
2015-Mar-25 21:17N 20°29' W 086°58'3 0.6
2015-Mar-25 17:09N 20°31' W 086°57'0 0.7
2015-Mar-25 16:33N 20°31' W 086°58'0 0.1
2015-Mar-25 15:08N 20°31' W 086°58'1 1.3
2015-Mar-25 14:30N 20°31' W 086°57'2 1.1
2015-Mar-25 12:20N 20°29' W 086°59'2 3.0
2015-Mar-25 11:33N 20°31' W 086°57'0 0.0
2015-Mar-25 03:33N 20°31' W 086°57'1 0.8
2015-Mar-25 02:09N 20°32' W 086°58'1 1.4
2015-Mar-25 01:15N 20°31' W 086°57'0 0.1
2015-Mar-25 00:33N 20°31' W 086°57'1 0.5
2015-Mar-24 23:30N 20°31' W 086°57'0 0.4
2015-Mar-24 22:34N 20°31' W 086°57'1 0.6
2015-Mar-24 21:13N 20°31' W 086°58'1 0.6
2015-Mar-24 19:31N 20°31' W 086°57'1 0.6
2015-Mar-24 18:07N 20°31' W 086°58'1 0.1
2015-Mar-24 11:33N 20°31' W 086°57'0 0.0
2015-Mar-24 02:30N 20°31' W 086°57'2 1.7
2015-Mar-24 01:33N 20°32' W 086°58'1 0.8
2015-Mar-24 00:10N 20°31' W 086°57'0 0.5
2015-Mar-23 23:14N 20°31' W 086°57'0 0.1
2015-Mar-23 22:29N 20°31' W 086°57'0 0.0
2015-Mar-23 21:23N 20°31' W 086°57'0 0.1
2015-Mar-23 19:10N 20°31' W 086°57'0 0.2
2015-Mar-23 18:32N 20°31' W 086°57'0 0.0
2015-Mar-23 17:32N 20°31' W 086°57'0 0.0
2015-Mar-23 16:25N 20°31' W 086°57'0 0.0
2015-Mar-23 15:30N 20°31' W 086°57'0 0.0
2015-Mar-23 14:24N 20°31' W 086°57'0 0.0
2015-Mar-23 13:18N 20°31' W 086°57'0 0.1
2015-Mar-23 12:33N 20°31' W 086°57'2 1.1
2015-Mar-23 11:12N 20°32' W 086°58'2 2.4
2015-Mar-23 10:33N 20°31' W 086°57'0 0.0
2015-Mar-23 00:34N 20°31' W 086°57'1 0.7
2015-Mar-22 23:11N 20°32' W 086°58'1 1.2
2015-Mar-22 22:16N 20°31' W 086°57'0 0.1
2015-Mar-22 21:33N 20°31' W 086°57'0 0.0
2015-Mar-22 20:33N 20°31' W 086°57'0 0.1
2015-Mar-22 19:33N 20°31' W 086°57'1 0.7
2015-Mar-22 18:06N 20°31' W 086°58'0 0.4
2015-Mar-22 17:33N 20°31' W 086°58'0 0.2
2015-Mar-22 16:09N 20°32' W 086°58'1 1.8
2015-Mar-22 15:33N 20°31' W 086°57'1 0.8
2015-Mar-22 14:12N 20°32' W 086°58'1 1.7
2015-Mar-22 13:32N 20°31' W 086°57'0 0.0
2015-Mar-22 12:32N 20°31' W 086°57'0 0.0
2015-Mar-22 11:32N 20°31' W 086°57'0 0.0
2015-Mar-22 02:08N 20°31' W 086°57'0 0.1
2015-Mar-22 01:34N 20°31' W 086°57'1 0.7
2015-Mar-22 00:12N 20°31' W 086°58'0 0.7
2015-Mar-21 23:33N 20°32' W 086°58'1 0.4
2015-Mar-21 22:10N 20°31' W 086°58'1 0.7
2015-Mar-21 21:07N 20°31' W 086°57'1 1.9
2015-Mar-21 20:34N 20°31' W 086°58'0 0.1
2015-Mar-21 19:12N 20°32' W 086°58'1 1.1
2015-Mar-21 18:33N 20°32' W 086°59'1 0.5
2015-Mar-21 17:09N 20°32' W 086°58'0 0.0
2015-Mar-21 15:08N 20°32' W 086°58'1 1.2
2015-Mar-21 14:33N 20°31' W 086°57'1 0.5
2015-Mar-21 13:11N 20°32' W 086°58'1 1.8
2015-Mar-21 12:32N 20°31' W 086°57'1 0.9
2015-Mar-21 11:10N 20°32' W 086°58'1 2.2
2015-Mar-21 10:33N 20°31' W 086°57'0 0.0
2015-Mar-21 01:23N 20°31' W 086°57'1 1.0
2015-Mar-21 00:33N 20°31' W 086°58'0 0.3
2015-Mar-20 23:11N 20°31' W 086°57'0 0.0
2015-Mar-20 21:10N 20°31' W 086°57'0 0.7
2015-Mar-20 20:32N 20°31' W 086°57'1 0.8
2015-Mar-20 19:33N 20°31' W 086°58'0 0.3
2015-Mar-20 18:07N 20°32' W 086°58'2 0.6
2015-Mar-20 14:17N 20°29' W 086°59'0 0.6
2015-Mar-20 13:34N 20°29' W 086°59'2 2.4
2015-Mar-20 12:33N 20°31' W 086°57'0 0.2
2015-Mar-20 11:33N 20°31' W 086°57'0 0.0
2015-Mar-20 01:20N 20°31' W 086°57'0 0.0
2015-Mar-19 23:31N 20°31' W 086°57'1 0.7
2015-Mar-19 22:33N 20°31' W 086°58'0 0.1
2015-Mar-19 15:33N 20°30' W 086°57'0 0.0
2015-Mar-19 14:33N 20°30' W 086°57'1 0.9
2015-Mar-19 13:10N 20°32' W 086°58'1 1.8
2015-Mar-19 12:31N 20°31' W 086°57'1 0.6
2015-Mar-19 11:09N 20°31' W 086°57'1 1.3
2015-Mar-19 10:30N 20°31' W 086°57'0 0.0
2015-Mar-19 00:31N 20°31' W 086°57'2 1.2
2015-Mar-18 23:10N 20°32' W 086°58'1 1.5
2015-Mar-18 22:33N 20°31' W 086°58'1 0.5
2015-Mar-18 21:10N 20°32' W 086°58'1 1.4
2015-Mar-18 20:18N 20°31' W 086°57'0 0.1
2015-Mar-18 19:33N 20°31' W 086°57'1 0.7
2015-Mar-18 18:07N 20°32' W 086°58'1 1.0
2015-Mar-18 17:33N 20°31' W 086°58'1 0.7
2015-Mar-18 16:11N 20°32' W 086°58'0 0.1
2015-Mar-18 14:10N 20°32' W 086°58'1 1.5
2015-Mar-18 13:14N 20°31' W 086°57'0 0.0
2015-Mar-18 12:33N 20°31' W 086°57'0 0.0
2015-Mar-18 11:33N 20°31' W 086°57'0 0.0
2015-Mar-18 01:33N 20°31' W 086°57'1 1.0
2015-Mar-18 00:13N 20°32' W 086°58'1 1.5
2015-Mar-17 23:12N 20°31' W 086°57'2 3.3
2015-Mar-17 22:33N 20°30' W 086°59'1 0.1
2015-Mar-17 13:32N 20°29' W 086°59'2 2.4
2015-Mar-17 12:33N 20°31' W 086°57'1 0.4
2015-Mar-17 11:10N 20°31' W 086°57'1 1.0
2015-Mar-17 10:33N 20°31' W 086°57'0 0.0
2015-Mar-17 01:13N 20°31' W 086°57'0 0.1
2015-Mar-17 00:33N 20°31' W 086°57'1 0.6
2015-Mar-16 23:10N 20°31' W 086°58'0 0.6
2015-Mar-16 22:33N 20°31' W 086°57'1 0.8
2015-Mar-16 21:14N 20°32' W 086°58'1 1.3
2015-Mar-16 20:10N 20°31' W 086°57'  

Dump ship's entire track history